Flight Track Log - Related Links

Times and Time Zones

All times are in EDT time to prevent confusion due to time zone crossing. See the KBA204 flight status page for this flight to view local times or setup timezone preferences in your user account.

Time Position Orientation Groundspeed Altitude Reporting Facility
EDT Latitude Longitude Course Direction KTS MPH feet Rate Location/Type
Fri 08:04:00 PM 68.0874 -132.4391 119° Southeast  Level FlightAware Approximate
Fri 08:05:00 PM 68.0519 -132.2683 119° Southeast  Level FlightAware Approximate
Fri 08:06:00 PM 68.0163 -132.0980 118° Southeast  Level FlightAware Approximate
Fri 08:07:00 PM 67.9821 -131.9257 118° Southeast  Level FlightAware Approximate
Fri 08:08:00 PM 67.9479 -131.7540 118° Southeast  Level FlightAware Approximate
Fri 08:09:00 PM 67.9134 -131.5827 118° Southeast  Level FlightAware Approximate
Fri 08:10:00 PM 67.8782 -131.4127 119° Southeast  Level FlightAware Approximate
Fri 08:11:00 PM 67.8426 -131.2436 119° Southeast  Level FlightAware Approximate
Fri 08:12:00 PM 67.8055 -131.0770 121° Southeast  Level FlightAware Approximate
Fri 08:13:00 PM 67.7679 -130.9116 121° Southeast  Level FlightAware Approximate
Fri 08:14:00 PM 67.7309 -130.7454 120° Southeast  Level FlightAware Approximate
Fri 08:15:00 PM 67.6944 -130.5787 120° Southeast  Level FlightAware Approximate
Fri 08:16:00 PM 67.6577 -130.4125 120° Southeast  Level FlightAware Approximate
Fri 08:17:00 PM 67.6209 -130.2469 120° Southeast  Level FlightAware Approximate
Fri 08:18:00 PM 67.5839 -130.0817 120° Southeast  Level FlightAware Approximate
Fri 08:19:00 PM 67.5467 -129.9171 121° Southeast  Level FlightAware Approximate
Fri 08:20:00 PM 67.5094 -129.7530 121° Southeast  Level FlightAware Approximate
Fri 08:21:00 PM 67.4719 -129.5894 121° Southeast  Level FlightAware Approximate
Fri 08:22:00 PM 67.4342 -129.4263 121° Southeast  Level FlightAware Approximate
Fri 08:23:00 PM 67.3964 -129.2637 121° Southeast  Level FlightAware Approximate
Fri 08:24:00 PM 67.3584 -129.1017 121° Southeast  Level FlightAware Approximate
Fri 08:25:00 PM 67.3203 -128.9401 121° Southeast  Level FlightAware Approximate
Fri 08:26:00 PM 67.2820 -128.7791 122° Southeast  Level FlightAware Approximate
Fri 08:27:00 PM 67.2435 -128.6186 122° Southeast  Level FlightAware Approximate
Fri 08:28:00 PM 67.2048 -128.4586 122° Southeast  Level FlightAware Approximate
Fri 08:29:00 PM 67.1661 -128.2991 122° Southeast  Level FlightAware Approximate
Fri 08:30:00 PM 67.1271 -128.1402 122° Southeast  Level FlightAware Approximate
Fri 08:31:00 PM 67.0880 -127.9817 122° Southeast  Level FlightAware Approximate
Fri 08:32:00 PM 67.0487 -127.8238 122° Southeast  Level FlightAware Approximate
Fri 08:33:00 PM 67.0093 -127.6664 123° Southeast  Level FlightAware Approximate
Fri 08:34:00 PM 66.9697 -127.5095 123° Southeast  Level FlightAware Approximate
Fri 08:35:00 PM 66.9300 -127.3530 123° Southeast  Level FlightAware Approximate
Fri 08:36:00 PM 66.8901 -127.1971 123° Southeast  Level FlightAware Approximate
Fri 08:37:00 PM 66.8501 -127.0417 123° Southeast  Level FlightAware Approximate
Fri 08:38:00 PM 66.8099 -126.8869 123° Southeast  Level FlightAware Approximate
Fri 08:39:00 PM 66.7695 -126.7325 123° Southeast  Level FlightAware Approximate
Fri 08:40:00 PM 66.7291 -126.5786 124° Southeast  Level FlightAware Approximate
Fri 08:41:00 PM 66.6884 -126.4253 124° Southeast  Level FlightAware Approximate
Fri 08:42:00 PM 66.6476 -126.2724 124° Southeast  Level FlightAware Approximate
Fri 08:43:00 PM 66.6067 -126.1201 124° Southeast  Level FlightAware Approximate
Fri 08:44:00 PM 66.5656 -125.9682 124° Southeast  Level FlightAware Approximate
Fri 08:45:00 PM 66.5244 -125.8169 124° Southeast  Level FlightAware Approximate
Fri 08:46:00 PM 66.4830 -125.6660 124° Southeast  Level FlightAware Approximate
Fri 08:47:00 PM 66.4415 -125.5157 125° Southeast  Level FlightAware Approximate
Fri 08:48:00 PM 66.3998 -125.3658 125° Southeast  Level FlightAware Approximate
Fri 08:49:00 PM 66.3580 -125.2165 125° Southeast  Level FlightAware Approximate
Fri 08:50:00 PM 66.3161 -125.0676 125° Southeast  Level FlightAware Approximate
Fri 08:51:00 PM 66.2740 -124.9193 125° Southeast  Level FlightAware Approximate
Fri 08:52:00 PM 66.2317 -124.7714 125° Southeast  Level FlightAware Approximate
Fri 08:53:00 PM 66.1894 -124.6241 125° Southeast  Level FlightAware Approximate
Fri 08:54:00 PM 66.1469 -124.4772 126° Southeast  Level FlightAware Approximate
Fri 08:55:00 PM 66.1042 -124.3308 126° Southeast  Level FlightAware Approximate
Fri 08:56:00 PM 66.0614 -124.1850 126° Southeast  Level FlightAware Approximate
Fri 08:57:00 PM 66.0185 -124.0396 126° Southeast  Level FlightAware Approximate
Fri 08:58:00 PM 65.9754 -123.8947 126° Southeast  Level FlightAware Approximate
Fri 08:59:00 PM 65.9322 -123.7503 126° Southeast  Level FlightAware Approximate
Fri 09:00:00 PM 65.8889 -123.6064 126° Southeast  Level FlightAware Approximate
Fri 09:01:00 PM 65.8454 -123.4629 126° Southeast  Level FlightAware Approximate
Fri 09:02:00 PM 65.8018 -123.3200 127° Southeast  Level FlightAware Approximate
Fri 09:03:00 PM 65.7581 -123.1775 127° Southeast  Level FlightAware Approximate
Fri 09:04:00 PM 65.7142 -123.0355 127° Southeast  Level FlightAware Approximate
Fri 09:05:00 PM 65.6702 -122.8940 127° Southeast  Level FlightAware Approximate
Fri 09:06:00 PM 65.6261 -122.7530 127° Southeast  Level FlightAware Approximate
Fri 09:07:00 PM 65.5818 -122.6124 127° Southeast  Level FlightAware Approximate
Fri 09:08:00 PM 65.5374 -122.4724 127° Southeast  Level FlightAware Approximate
Fri 09:09:00 PM 65.4929 -122.3328 128° Southeast  Level FlightAware Approximate
Fri 09:10:00 PM 65.4483 -122.1937 128° Southeast  Level FlightAware Approximate
Fri 09:11:00 PM 65.4035 -122.0550 128° Southeast  Level FlightAware Approximate
Fri 09:12:00 PM 65.3586 -121.9169 128° Southeast  Level FlightAware Approximate
Fri 09:13:00 PM 65.3136 -121.7792 128° Southeast  Level FlightAware Approximate
Fri 09:14:00 PM 65.2684 -121.6420 128° Southeast  Level FlightAware Approximate
Fri 09:15:00 PM 65.2232 -121.5052 128° Southeast  Level FlightAware Approximate
Fri 09:16:00 PM 65.1778 -121.3689 128° Southeast  Level FlightAware Approximate
Fri 09:17:00 PM 65.1322 -121.2331 129° Southeast  Level FlightAware Approximate
Fri 09:18:00 PM 65.0866 -121.0977 129° Southeast  Level FlightAware Approximate
Fri 09:19:00 PM 65.0408 -120.9629 129° Southeast  Level FlightAware Approximate
Fri 09:20:00 PM 64.9949 -120.8284 129° Southeast  Level FlightAware Approximate
Fri 09:21:00 PM 64.9489 -120.6945 129° Southeast  Level FlightAware Approximate
Fri 09:22:00 PM 64.9028 -120.5609 129° Southeast  Level FlightAware Approximate
Fri 09:23:00 PM 64.8566 -120.4279 129° Southeast  Level FlightAware Approximate
Fri 09:24:00 PM 64.8102 -120.2953 129° Southeast  Level FlightAware Approximate
Fri 09:25:00 PM 64.7637 -120.1632 129° Southeast  Level FlightAware Approximate
Fri 09:26:00 PM 64.7171 -120.0315 130° Southeast  Level FlightAware Approximate
Fri 09:27:00 PM 64.6703 -119.9004 130° Southeast  Level FlightAware Approximate
Fri 09:28:00 PM 64.6234 -119.7698 130° Southeast  Level FlightAware Approximate
Fri 09:29:00 PM 64.5764 -119.6396 130° Southeast  Level FlightAware Approximate
Fri 09:30:00 PM 64.5292 -119.5099 130° Southeast  Level FlightAware Approximate
Fri 09:31:00 PM 64.4820 -119.3807 130° Southeast  Level FlightAware Approximate
Fri 09:32:00 PM 64.4346 -119.2519 130° Southeast  Level FlightAware Approximate
Fri 09:32:09 PM 64.4500 -119.3167 131° Southeast 280 322 25,000  Level Edmonton Center
Fri 09:33:00 PM 64.3871 -119.1235 131° Southeast  Level FlightAware Approximate
Fri 09:33:09 PM 64.4000 -119.1667 128° Southeast 280 322 25,000  Level Edmonton Center
Fri 09:34:00 PM 64.3395 -118.9956 131° Southeast  Level FlightAware Approximate
Fri 09:34:09 PM 64.3500 -119.0333 131° Southeast 280 322 25,000  Level Edmonton Center
Fri 09:35:00 PM 64.2918 -118.8681 131° Southeast  Level FlightAware Approximate
Fri 09:35:09 PM 64.3000 -118.8833 128° Southeast 290 334 25,000  Level Edmonton Center
Fri 09:36:00 PM 64.2440 -118.7411 131° Southeast  Level FlightAware Approximate
Fri 09:37:00 PM 64.1960 -118.6145 131° Southeast  Level FlightAware Approximate
Fri 09:37:00 PM 64.2113 -118.6489 131° Southeast  Level FlightAware Approximate
Fri 09:44:00 PM 63.8723 -117.7754 131° Southeast  Level FlightAware Approximate
Fri 09:45:00 PM 63.8234 -117.6523 132° Southeast  Level FlightAware Approximate
Fri 09:46:00 PM 63.7745 -117.5297 132° Southeast  Level FlightAware Approximate
Fri 09:47:00 PM 63.7254 -117.4075 132° Southeast  Level FlightAware Approximate
Fri 09:48:00 PM 63.6763 -117.2857 132° Southeast  Level FlightAware Approximate
Fri 09:49:00 PM 63.6270 -117.1643 132° Southeast  Level FlightAware Approximate
Fri 09:50:00 PM 63.5776 -117.0434 132° Southeast  Level FlightAware Approximate
Fri 09:51:00 PM 63.5283 -116.9225 132° Southeast  Level FlightAware Approximate
Fri 09:52:00 PM 63.4790 -116.8019 132° Southeast  Level FlightAware Approximate
Fri 09:53:00 PM 63.4295 -116.6818 133° Southeast  Level FlightAware Approximate
Fri 09:54:00 PM 63.3800 -116.5621 133° Southeast  Level FlightAware Approximate
Fri 09:55:00 PM 63.3303 -116.4428 133° Southeast  Level FlightAware Approximate
Fri 09:56:00 PM 63.2803 -116.3243 133° Southeast  Level FlightAware Approximate
Fri 09:57:00 PM 63.2303 -116.2063 133° Southeast  Level FlightAware Approximate
Fri 09:58:00 PM 63.1801 -116.0886 133° Southeast  Level FlightAware Approximate
Fri 09:59:00 PM 63.1298 -115.9714 133° Southeast  Level FlightAware Approximate
Fri 10:00:00 PM 63.0795 -115.8546 134° Southeast  Level FlightAware Approximate
Fri 10:01:00 PM 63.0290 -115.7382 134° Southeast  Level FlightAware Approximate
Fri 10:02:00 PM 62.9789 -115.6213 129° Southeast  Level FlightAware Approximate
Fri 10:03:00 PM 62.9325 -115.4974 129° Southeast  Level FlightAware Approximate
Fri 10:04:00 PM 62.8860 -115.3737 129° Southeast  Level FlightAware Approximate
Fri 10:05:00 PM 62.8326 -115.2647 137° Southeast  Level FlightAware Approximate
Fri 10:06:00 PM 62.7788 -115.1569 138° Southeast  Level FlightAware Approximate
Fri 10:07:00 PM 62.7248 -115.0495 138° Southeast  Level FlightAware Approximate
Fri 10:08:00 PM 62.6775 -114.9286 129° Southeast  Level FlightAware Approximate
Fri 10:09:00 PM 62.6313 -114.8055 129° Southeast  Level FlightAware Approximate
Fri 10:10:00 PM 62.5800 -114.6932 137° Southeast  Level FlightAware Approximate
Fri 10:11:00 PM 62.5249 -114.5893 141° Southeast  Level FlightAware Approximate
Fri 10:12:00 PM 62.4705 -114.4846 131° Southeast  Level FlightAware Approximate
Fri 10:13:00 PM 62.4628 -114.4403 131° Southeast  Level Estimated
Fri 10:14:00 PM 62.4628 -114.4403 131° Southeast  Level Estimated
Fri 10:15:00 PM 62.4628 -114.4403 131° Southeast  Level Estimated
Fri 10:16:00 PM 62.4628 -114.4403 131° Southeast  Level Estimated
Fri 10:17:00 PM 62.4628 -114.4403 131° Southeast  Level Estimated
Fri 10:18:00 PM 62.4628 -114.4403 131° Southeast  Level Estimated
Fri 10:19:00 PM 62.4628 -114.4403 131° Southeast  Level Estimated
Fri 10:20:00 PM 62.4628 -114.4403 131° Southeast  Level Estimated
Fri 10:21:00 PM 62.4628 -114.4403 131° Southeast  Level Estimated
Fri 10:22:00 PM 62.4628 -114.4403 131° Southeast  Level Estimated
Fri 10:23:00 PM 62.4628 -114.4403 131° Southeast  Level Estimated
Fri 10:24:00 PM 62.4628 -114.4403 131° Southeast  Level Estimated
Fri 10:25:00 PM 62.4628 -114.4403 131° Southeast  Level Estimated
Fri 10:26:00 PM 62.4628 -114.4403 131° Southeast  Level Estimated
Fri 10:27:00 PM 62.4628 -114.4403 131° Southeast  Level Estimated
Fri 10:28:00 PM 62.4628 -114.4403 131° Southeast  Level Estimated

Login

Don't have an account? Register now (free) for customized features, flight alerts, and more!